Time;durP1;ratioP1;P1;durP2;ratioP2;P2;SDS_P1;SDS_P2;PMS_P1;PMS_P2;Temp;Humidity;BMP_temperature;BMP_pressure;BME280_temperature;BME280_humidity;BME280_pressure;Samples;Min_cycle;Max_cycle;Signal;HPM_P1;HPM_P2
2022/10/19 00:01:12;;;;;;;2.43;2.23;;;10.30;97.30;;;;;;5058273;22;20484;-88
2022/10/19 00:03:39;;;;;;;4.23;2.67;;;10.20;97.30;;;;;;5010406;28;21005;-88
2022/10/19 00:06:25;;;;;;;7.70;4.50;;;10.20;97.30;;;;;;5010328;28;20866;-89
2022/10/19 00:09:11;;;;;;;4.00;3.30;;;10.20;97.30;;;;;;5007111;28;20451;-89
2022/10/19 00:11:40;;;;;;;4.93;2.60;;;10.20;97.30;;;;;;4991705;28;20934;-90
2022/10/19 00:14:07;;;;;;;3.20;3.00;;;10.10;97.30;;;;;;4990670;28;20440;-88
2022/10/19 00:16:36;;;;;;;4.00;2.20;;;10.10;97.30;;;;;;5002019;28;20428;-87
2022/10/19 00:19:06;;;;;;;4.40;2.50;;;10.10;97.30;;;;;;5010037;28;20495;-88
2022/10/19 00:21:32;;;;;;;10.83;5.23;;;10.00;97.30;;;;;;5009992;28;20427;-88
2022/10/19 00:23:58;;;;;;;4.17;3.00;;;10.00;97.30;;;;;;5011147;28;20467;-88
2022/10/19 00:26:24;;;;;;;2.93;2.73;;;10.00;97.30;;;;;;5010032;28;20181;-88
2022/10/19 00:28:51;;;;;;;4.57;3.83;;;10.00;97.30;;;;;;5010144;28;20201;-88
2022/10/19 00:31:17;;;;;;;2.33;1.50;;;10.00;97.30;;;;;;5010305;28;20231;-88
2022/10/19 00:33:45;;;;;;;4.13;2.50;;;10.00;97.30;;;;;;5009975;28;20839;-88
2022/10/19 00:36:22;;;;;;;4.47;2.50;;;9.90;97.30;;;;;;5010082;28;20178;-89
2022/10/19 00:38:48;;;;;;;3.10;2.43;;;9.80;97.30;;;;;;5010036;28;20937;-88
2022/10/19 00:41:15;;;;;;;2.50;2.33;;;9.80;97.30;;;;;;5009940;28;20456;-87
2022/10/19 00:43:56;;;;;;;1.60;1.50;;;9.70;97.30;;;;;;5010817;28;20451;-87
2022/10/19 00:46:22;;;;;;;2.83;2.47;;;9.60;97.30;;;;;;5009883;28;20819;-87
2022/10/19 00:48:51;;;;;;;6.53;2.00;;;9.50;97.30;;;;;;5009562;28;20432;-88
2022/10/19 00:51:17;;;;;;;3.47;1.93;;;9.50;97.30;;;;;;5011150;28;20416;-88
2022/10/19 00:53:43;;;;;;;3.23;2.03;;;9.40;97.30;;;;;;5009852;28;20428;-89
2022/10/19 00:56:12;;;;;;;3.17;1.83;;;9.30;97.30;;;;;;5010274;28;20422;-88
2022/10/19 00:58:39;;;;;;;3.53;2.70;;;9.30;97.30;;;;;;5005548;28;20178;-88
2022/10/19 01:01:08;;;;;;;1.90;1.80;;;9.20;97.30;;;;;;5008478;28;20476;-87
2022/10/19 01:03:33;;;;;;;2.97;2.77;;;9.20;97.30;;;;;;5008616;28;20470;-88
2022/10/19 01:05:59;;;;;;;1.80;1.70;;;9.10;97.30;;;;;;5008450;28;20814;-88
2022/10/19 01:08:26;;;;;;;3.37;2.80;;;9.10;97.30;;;;;;5008540;28;20231;-88
2022/10/19 01:11:13;;;;;;;2.50;2.10;;;9.10;97.30;;;;;;5006083;28;20973;-90
2022/10/19 01:14:18;;;;;;;1.73;1.63;;;9.10;97.30;;;;;;4990585;28;20416;-90
2022/10/19 01:17:22;;;;;;;1.50;1.40;;;9.10;97.30;;;;;;4988931;28;20456;-88
2022/10/19 01:20:25;;;;;;;2.83;2.37;;;9.10;97.30;;;;;;4989357;28;20441;-89
2022/10/19 01:23:35;;;;;;;3.67;2.50;;;9.10;97.30;;;;;;4989097;28;20539;-89
2022/10/19 01:26:39;;;;;;;2.23;2.03;;;9.00;97.30;;;;;;5000197;28;20416;-91
2022/10/19 01:29:36;;;;;;;5.63;3.40;;;9.00;97.30;;;;;;5014673;28;20440;-93
2022/10/19 01:32:25;;;;;;;1.73;1.63;;;9.00;97.30;;;;;;5012389;28;20435;-87
2022/10/19 01:35:13;;;;;;;3.10;2.63;;;9.00;97.30;;;;;;4989376;28;20413;-89
2022/10/19 01:37:49;;;;;;;3.43;2.10;;;9.00;97.30;;;;;;4993913;28;20405;-87
2022/10/19 01:40:32;;;;;;;3.73;2.23;;;9.00;97.30;;;;;;4993630;28;20507;-88
2022/10/19 01:43:37;;;;;;;7.73;2.47;;;9.00;97.30;;;;;;4993072;28;20472;-88
2022/10/19 01:46:03;;;;;;;1.33;1.33;;;9.10;97.30;;;;;;4983788;28;20815;-89
2022/10/19 01:48:34;;;;;;;7.13;2.10;;;9.10;97.30;;;;;;4994139;28;20413;-88
2022/10/19 01:51:04;;;;;;;3.83;2.30;;;9.10;97.30;;;;;;4993136;28;20707;-89
2022/10/19 01:53:38;;;;;;;3.20;2.33;;;9.10;97.30;;;;;;4994583;28;20439;-87
2022/10/19 01:56:05;;;;;;;7.67;3.47;;;9.10;97.30;;;;;;4992909;28;20833;-88
2022/10/19 01:58:34;;;;;;;1.83;1.73;;;9.20;97.30;;;;;;4993127;28;20939;-89
2022/10/19 02:01:08;;;;;;;4.20;3.00;;;9.20;97.30;;;;;;4992837;28;20468;-88
2022/10/19 02:03:34;;;;;;;3.37;2.00;;;9.20;97.30;;;;;;4992967;28;20461;-88
2022/10/19 02:06:08;;;;;;;1.57;1.47;;;9.20;97.30;;;;;;4992999;28;20427;-87
2022/10/19 02:08:47;;;;;;;5.03;4.03;;;9.30;97.30;;;;;;4993084;28;20425;-90
2022/10/19 02:11:15;;;;;;;2.50;2.10;;;9.30;97.30;;;;;;4992938;28;20420;-88
2022/10/19 02:13:45;;;;;;;3.27;1.93;;;9.30;97.30;;;;;;4992689;28;20425;-88
2022/10/19 02:16:24;;;;;;;6.77;3.47;;;9.30;97.30;;;;;;4992579;28;20932;-89
2022/10/19 02:18:52;;;;;;;4.57;3.43;;;9.30;97.30;;;;;;4991988;28;20448;-89
2022/10/19 02:21:20;;;;;;;3.87;2.43;;;9.30;97.30;;;;;;4992007;28;20409;-88
2022/10/19 02:23:45;;;;;;;5.63;4.10;;;9.40;97.30;;;;;;4993263;28;20492;-90
2022/10/19 02:26:11;;;;;;;2.83;2.10;;;9.40;97.30;;;;;;4991693;28;20924;-87
2022/10/19 02:28:37;;;;;;;1.73;1.67;;;9.40;97.30;;;;;;4991770;28;20178;-88
2022/10/19 02:31:03;;;;;;;3.17;2.13;;;9.40;97.30;;;;;;4993138;28;20166;-88
2022/10/19 02:33:30;;;;;;;2.83;2.20;;;9.40;97.30;;;;;;4992749;28;20420;-87
2022/10/19 02:35:57;;;;;;;1.70;1.60;;;9.40;97.30;;;;;;4991566;28;20947;-91
2022/10/19 02:38:23;;;;;;;3.93;2.40;;;9.40;97.30;;;;;;4991493;28;20417;-91
2022/10/19 02:41:16;;;;;;;6.53;3.40;;;9.40;97.30;;;;;;4991686;28;20444;-88
2022/10/19 02:43:47;;;;;;;2.07;1.93;;;9.40;97.30;;;;;;4991385;28;20459;-91
2022/10/19 02:46:22;;;;;;;2.87;2.00;;;9.40;97.30;;;;;;4991426;28;20995;-90
2022/10/19 02:48:49;;;;;;;2.40;1.83;;;9.30;97.30;;;;;;4991391;28;21061;-88
2022/10/19 02:51:33;;;;;;;7.40;3.17;;;9.30;97.30;;;;;;4991716;28;20443;-89
2022/10/19 02:53:59;;;;;;;2.70;2.00;;;9.30;97.30;;;;;;4991844;28;20422;-88
2022/10/19 02:56:25;;;;;;;2.90;2.70;;;9.30;97.30;;;;;;4992635;28;20437;-88
2022/10/19 02:58:50;;;;;;;2.53;2.37;;;9.30;97.30;;;;;;4990883;28;20194;-88
2022/10/19 03:01:16;;;;;;;4.30;1.90;;;9.30;97.30;;;;;;4991622;28;20494;-88
2022/10/19 03:03:41;;;;;;;2.33;2.13;;;9.30;97.30;;;;;;4991427;28;20233;-90
2022/10/19 03:06:07;;;;;;;3.47;3.30;;;9.30;97.30;;;;;;4991203;28;20186;-87
2022/10/19 03:08:32;;;;;;;2.63;2.43;;;9.30;97.30;;;;;;4990959;28;20185;-90
2022/10/19 03:10:58;;;;;;;2.70;2.03;;;9.30;97.30;;;;;;4991088;28;20186;-89
2022/10/19 03:13:24;;;;;;;2.00;1.50;;;9.40;97.30;;;;;;4991310;28;20191;-88
2022/10/19 03:15:50;;;;;;;4.10;2.40;;;9.40;97.30;;;;;;4996378;28;20177;-88
2022/10/19 03:18:15;;;;;;;2.30;2.10;;;9.40;97.30;;;;;;5010316;28;20327;-88
2022/10/19 03:20:41;;;;;;;2.33;2.13;;;9.40;97.30;;;;;;5010517;28;20537;-88
2022/10/19 03:23:06;;;;;;;2.30;2.10;;;9.40;97.30;;;;;;5011505;28;20201;-87
2022/10/19 03:25:32;;;;;;;5.33;3.97;;;9.40;97.30;;;;;;5010678;28;20181;-88
2022/10/19 03:27:58;;;;;;;1.93;1.80;;;9.40;97.30;;;;;;5010722;28;20266;-89
2022/10/19 03:30:23;;;;;;;1.83;1.73;;;9.50;97.30;;;;;;5010272;28;20193;-91
2022/10/19 03:32:49;;;;;;;3.00;2.77;;;9.50;97.30;;;;;;5010514;28;20564;-88
2022/10/19 03:35:15;;;;;;;3.03;2.83;;;9.50;97.30;;;;;;5010702;28;20729;-89
2022/10/19 03:37:40;;;;;;;3.93;2.90;;;9.50;97.30;;;;;;5010887;28;20416;-87
2022/10/19 03:40:06;;;;;;;2.33;2.13;;;9.40;97.30;;;;;;5011683;28;20201;-91
2022/10/19 03:42:32;;;;;;;4.63;1.77;;;9.40;97.30;;;;;;5032022;28;20185;-91
2022/10/19 03:44:57;;;;;;;5.33;3.17;;;9.40;97.30;;;;;;5034941;28;20423;-92
2022/10/19 03:47:23;;;;;;;3.07;2.83;;;9.30;97.30;;;;;;5034901;28;20165;-94
2022/10/19 03:49:51;;;;;;;2.70;2.50;;;9.30;97.30;;;;;;5034700;28;20257;-92
2022/10/19 03:52:20;;;;;;;2.70;1.97;;;9.20;97.30;;;;;;5013729;28;20272;-88
2022/10/19 03:54:49;;;;;;;2.70;2.50;;;9.20;97.30;;;;;;5009920;28;20982;-87
2022/10/19 03:57:14;;;;;;;1.90;1.80;;;9.10;97.30;;;;;;5010517;28;20427;-86
2022/10/19 03:59:40;;;;;;;4.00;1.87;;;9.10;97.30;;;;;;5009161;28;20559;-89
2022/10/19 04:02:05;;;;;;;4.07;2.63;;;9.10;97.30;;;;;;5010188;28;20659;-88
2022/10/19 04:04:31;;;;;;;2.47;2.30;;;9.00;97.30;;;;;;5009684;28;20215;-88
2022/10/19 04:06:56;;;;;;;2.00;1.90;;;9.00;97.30;;;;;;5010139;28;20177;-90
2022/10/19 04:09:22;;;;;;;1.60;1.50;;;9.00;97.30;;;;;;5009586;28;20197;-91
2022/10/19 04:11:51;;;;;;;1.93;1.83;;;9.00;97.30;;;;;;5009027;28;20189;-89
2022/10/19 04:14:19;;;;;;;1.63;1.53;;;8.90;97.30;;;;;;5009415;28;20423;-89
2022/10/19 04:16:45;;;;;;;3.93;3.10;;;8.90;97.30;;;;;;4998423;28;20559;-88
2022/10/19 04:19:14;;;;;;;2.40;2.20;;;8.90;97.30;;;;;;4991822;28;20496;-88
2022/10/19 04:21:40;;;;;;;1.83;1.80;;;8.80;97.30;;;;;;4992259;28;20276;-88
2022/10/19 04:24:09;;;;;;;5.10;2.40;;;8.80;97.30;;;;;;4991822;28;20468;-88
2022/10/19 04:26:42;;;;;;;11.53;4.30;;;8.80;97.30;;;;;;5006475;28;21049;-88
2022/10/19 04:29:08;;;;;;;1.60;1.50;;;8.80;97.30;;;;;;5011894;28;21016;-88
2022/10/19 04:31:34;;;;;;;8.63;3.47;;;8.80;97.30;;;;;;5011205;28;20416;-88
2022/10/19 04:34:02;;;;;;;3.23;3.10;;;8.80;97.30;;;;;;5010694;28;20788;-88
2022/10/19 04:36:31;;;;;;;1.53;1.43;;;8.80;97.30;;;;;;5012324;28;20412;-85
2022/10/19 04:38:56;;;;;;;1.70;1.60;;;8.70;97.30;;;;;;5012898;28;20475;-86
2022/10/19 04:41:22;;;;;;;1.57;1.47;;;8.70;97.30;;;;;;5012335;28;20810;-90
2022/10/19 04:43:56;;;;;;;2.30;2.10;;;8.70;97.30;;;;;;5011795;28;20546;-88
2022/10/19 04:46:22;;;;;;;1.63;1.53;;;8.60;97.30;;;;;;5011362;28;20220;-88
2022/10/19 04:48:48;;;;;;;1.60;1.50;;;8.60;97.30;;;;;;5012602;28;20447;-89
2022/10/19 04:51:15;;;;;;;1.80;1.70;;;8.70;97.30;;;;;;5011550;28;20173;-88
2022/10/19 04:53:41;;;;;;;1.70;1.60;;;8.60;97.30;;;;;;5012189;28;20459;-88
2022/10/19 04:56:21;;;;;;;3.23;2.07;;;8.60;97.30;;;;;;5006728;28;20425;-88
2022/10/19 04:58:47;;;;;;;6.43;2.03;;;8.60;97.30;;;;;;5001099;28;20782;-88
2022/10/19 05:01:15;;;;;;;2.53;2.33;;;8.60;97.30;;;;;;5002339;28;20511;-88
2022/10/19 05:03:41;;;;;;;3.63;2.30;;;8.60;97.30;;;;;;4999262;28;20814;-88
2022/10/19 05:06:08;;;;;;;3.03;2.87;;;8.60;97.30;;;;;;4999712;28;20423;-88
2022/10/19 05:08:34;;;;;;;2.63;2.43;;;8.60;97.30;;;;;;5001826;28;20171;-88
2022/10/19 05:11:05;;;;;;;11.73;2.00;;;8.60;97.30;;;;;;5003897;28;20412;-88
2022/10/19 05:13:32;;;;;;;5.50;1.73;;;8.60;97.30;;;;;;5011299;28;20436;-88
2022/10/19 05:15:59;;;;;;;1.87;1.77;;;8.50;97.30;;;;;;4996681;28;20444;-90
2022/10/19 05:18:25;;;;;;;2.80;2.60;;;8.60;97.30;;;;;;4995647;28;20525;-88
2022/10/19 05:20:58;;;;;;;1.60;1.50;;;8.50;97.30;;;;;;4996738;28;20553;-88
2022/10/19 05:23:24;;;;;;;2.00;1.90;;;8.50;97.30;;;;;;4996759;28;20220;-88
2022/10/19 05:26:17;;;;;;;13.27;4.83;;;8.50;97.30;;;;;;4995563;28;20497;-88
2022/10/19 05:28:55;;;;;;;1.60;1.50;;;8.50;97.30;;;;;;4995339;28;20190;-86
2022/10/19 05:31:22;;;;;;;2.50;1.50;;;8.50;97.30;;;;;;4995259;28;20412;-88
2022/10/19 05:33:47;;;;;;;4.80;1.97;;;8.50;97.30;;;;;;4995914;28;20423;-89
2022/10/19 05:36:17;;;;;;;2.20;2.03;;;8.50;97.30;;;;;;5010165;28;20413;-96
2022/10/19 05:38:44;;;;;;;21.63;2.27;;;8.60;97.30;;;;;;5020678;28;20158;-95
2022/10/19 05:41:10;;;;;;;1.47;1.37;;;8.60;97.30;;;;;;5020763;28;20445;-86
2022/10/19 05:43:36;;;;;;;2.57;2.17;;;8.60;97.30;;;;;;5002577;28;20988;-85
2022/10/19 05:46:07;;;;;;;2.40;2.20;;;8.60;97.30;;;;;;4997009;28;20412;-88
2022/10/19 05:48:33;;;;;;;4.50;2.00;;;8.60;97.30;;;;;;4995241;28;20180;-86
2022/10/19 05:51:00;;;;;;;2.53;1.83;;;8.60;97.30;;;;;;4994874;28;20459;-88
2022/10/19 05:53:27;;;;;;;5.37;2.50;;;8.60;97.30;;;;;;4995519;28;20852;-88
2022/10/19 05:55:52;;;;;;;2.07;1.90;;;8.70;97.30;;;;;;4995103;28;20460;-87
2022/10/19 05:58:18;;;;;;;2.33;2.13;;;8.70;97.30;;;;;;4995230;28;20453;-88
2022/10/19 06:00:49;;;;;;;1.80;1.70;;;8.70;97.30;;;;;;5020882;22;20245;-83
2022/10/19 06:03:16;;;;;;;6.03;4.03;;;8.70;97.30;;;;;;4994562;28;20261;-82
2022/10/19 06:05:41;;;;;;;8.90;2.13;;;8.80;97.30;;;;;;4994276;28;20788;-81
2022/10/19 06:08:07;;;;;;;2.13;1.87;;;8.80;97.30;;;;;;4995538;28;20415;-83
2022/10/19 06:10:32;;;;;;;1.70;1.60;;;8.80;97.30;;;;;;4994188;28;20205;-82
2022/10/19 06:12:58;;;;;;;1.57;1.50;;;8.80;97.30;;;;;;4994423;28;20186;-82
2022/10/19 06:15:23;;;;;;;6.63;2.23;;;8.90;97.30;;;;;;4994304;28;20169;-83
2022/10/19 06:17:49;;;;;;;7.90;2.90;;;8.90;97.30;;;;;;4995709;28;20243;-82
2022/10/19 06:20:14;;;;;;;3.10;2.90;;;9.00;97.30;;;;;;4992088;28;20205;-82
2022/10/19 06:22:41;;;;;;;2.40;1.87;;;9.00;97.30;;;;;;4992268;28;20178;-82
2022/10/19 06:25:07;;;;;;;11.20;2.37;;;9.00;97.30;;;;;;4994368;28;20170;-82
2022/10/19 06:27:33;;;;;;;2.90;2.70;;;9.10;97.30;;;;;;4996951;28;20920;-81
2022/10/19 06:29:58;;;;;;;1.93;1.83;;;9.10;97.30;;;;;;4994915;28;20413;-82
2022/10/19 06:32:24;;;;;;;3.80;1.40;;;9.10;97.30;;;;;;4993886;28;20174;-82
2022/10/19 06:34:49;;;;;;;2.00;1.90;;;9.20;97.30;;;;;;4994702;28;20181;-82
2022/10/19 06:37:15;;;;;;;3.53;2.00;;;9.20;97.30;;;;;;4993811;28;20209;-83
2022/10/19 06:39:40;;;;;;;4.47;2.60;;;9.20;97.30;;;;;;4993141;28;20197;-81
2022/10/19 06:42:06;;;;;;;3.03;2.83;;;9.20;97.30;;;;;;4994458;28;20252;-82
2022/10/19 06:44:31;;;;;;;2.33;2.07;;;9.30;97.30;;;;;;4993523;28;20232;-82
2022/10/19 06:46:57;;;;;;;2.97;2.37;;;9.30;97.30;;;;;;4993639;28;20667;-82
2022/10/19 06:49:22;;;;;;;7.37;3.53;;;9.40;97.30;;;;;;4992148;28;20674;-83
2022/10/19 06:51:48;;;;;;;4.33;3.00;;;9.40;97.30;;;;;;4992452;28;20202;-83
2022/10/19 06:54:13;;;;;;;2.73;2.53;;;9.50;97.30;;;;;;4993528;28;20201;-83
2022/10/19 06:56:39;;;;;;;5.03;4.30;;;9.50;97.30;;;;;;4994559;28;20233;-84
2022/10/19 06:59:05;;;;;;;5.23;3.57;;;9.50;97.30;;;;;;4993303;28;20170;-83
2022/10/19 07:01:30;;;;;;;8.23;3.13;;;9.50;97.30;;;;;;4993127;28;20709;-83
2022/10/19 07:03:56;;;;;;;2.17;2.00;;;9.60;97.30;;;;;;4993244;28;20197;-82
2022/10/19 07:06:21;;;;;;;3.77;3.57;;;9.60;97.30;;;;;;4993320;28;20189;-82
2022/10/19 07:08:47;;;;;;;7.03;3.47;;;9.60;97.30;;;;;;4993381;28;20184;-83
2022/10/19 07:11:18;;;;;;;3.90;2.80;;;9.60;97.30;;;;;;4993172;28;20201;-82
2022/10/19 07:13:43;;;;;;;3.00;2.70;;;9.70;97.30;;;;;;4993448;28;20185;-82
2022/10/19 07:16:11;;;;;;;12.77;3.63;;;9.70;97.30;;;;;;4993070;28;20422;-82
2022/10/19 07:18:38;;;;;;;2.53;1.70;;;9.70;97.30;;;;;;4992001;28;20217;-83
2022/10/19 07:21:07;;;;;;;3.10;2.90;;;9.70;97.30;;;;;;4991562;28;20980;-83
2022/10/19 07:23:34;;;;;;;6.87;4.53;;;9.80;97.30;;;;;;4991194;28;20457;-83
2022/10/19 07:26:12;;;;;;;2.83;2.63;;;9.80;97.30;;;;;;4991117;28;20417;-83
2022/10/19 07:28:39;;;;;;;2.00;1.90;;;9.90;97.30;;;;;;4991165;28;20421;-83
2022/10/19 07:31:11;;;;;;;8.47;3.30;;;9.90;97.30;;;;;;4992209;28;20456;-83
2022/10/19 07:33:37;;;;;;;2.20;2.00;;;10.00;97.30;;;;;;4990518;28;20990;-83
2022/10/19 07:36:05;;;;;;;1.77;1.67;;;10.00;97.30;;;;;;4993903;28;20425;-82
2022/10/19 07:38:32;;;;;;;9.50;3.03;;;10.00;97.30;;;;;;4993038;28;20993;-82
2022/10/19 07:41:09;;;;;;;1.90;1.80;;;10.10;97.30;;;;;;4992964;28;20445;-83
2022/10/19 07:43:35;;;;;;;1.73;1.70;;;10.10;97.30;;;;;;4993605;28;20476;-82
2022/10/19 07:46:03;;;;;;;4.47;3.77;;;10.20;97.30;;;;;;4992392;28;20954;-82
2022/10/19 07:48:28;;;;;;;2.63;2.33;;;10.30;97.30;;;;;;4992299;28;20475;-83
2022/10/19 07:50:54;;;;;;;5.40;3.30;;;10.30;97.30;;;;;;4993599;28;20507;-82
2022/10/19 07:53:20;;;;;;;1.33;1.13;;;10.30;97.30;;;;;;4992514;28;20200;-82
2022/10/19 07:55:46;;;;;;;1.77;1.67;;;10.40;97.30;;;;;;4993560;28;20585;-83
2022/10/19 07:58:12;;;;;;;5.57;1.80;;;10.40;97.30;;;;;;4992357;28;20417;-82
2022/10/19 08:00:38;;;;;;;2.70;2.50;;;10.50;97.30;;;;;;4988882;28;20229;-83
2022/10/19 08:03:04;;;;;;;37.53;4.40;;;10.50;97.30;;;;;;4991511;28;20294;-83
2022/10/19 08:05:32;;;;;;;1.90;1.80;;;10.50;97.30;;;;;;4991765;28;20486;-83
2022/10/19 08:07:57;;;;;;;2.00;1.80;;;10.60;97.30;;;;;;4990453;28;20269;-83
2022/10/19 08:10:23;;;;;;;7.30;2.20;;;10.60;97.30;;;;;;4991754;28;20557;-83
2022/10/19 08:12:48;;;;;;;1.90;1.80;;;10.60;97.30;;;;;;4990287;28;20182;-83
2022/10/19 08:15:14;;;;;;;1.73;1.63;;;10.70;97.30;;;;;;4991002;28;20174;-83
2022/10/19 08:17:39;;;;;;;2.13;1.97;;;10.70;97.30;;;;;;5009812;28;20205;-83
2022/10/19 08:20:06;;;;;;;1.80;1.63;;;10.70;97.30;;;;;;5009672;28;20185;-83
2022/10/19 08:22:32;;;;;;;3.40;2.23;;;10.70;97.30;;;;;;5011287;28;20169;-82
2022/10/19 08:24:57;;;;;;;5.73;2.43;;;10.80;97.30;;;;;;5011340;28;20460;-83
2022/10/19 08:27:23;;;;;;;10.43;2.90;;;10.80;97.30;;;;;;5012907;28;20204;-82
2022/10/19 08:29:50;;;;;;;3.27;2.00;;;10.80;97.30;;;;;;5011536;28;20667;-83
2022/10/19 08:32:16;;;;;;;9.73;2.43;;;10.90;97.30;;;;;;5011032;28;20193;-82
2022/10/19 08:34:41;;;;;;;1.73;1.20;;;10.90;97.30;;;;;;5010376;28;20494;-84
2022/10/19 08:37:07;;;;;;;5.63;2.03;;;10.90;97.30;;;;;;5009906;28;20519;-82
2022/10/19 08:39:32;;;;;;;1.43;1.33;;;11.00;97.30;;;;;;5012639;28;20568;-83
2022/10/19 08:42:11;;;;;;;8.13;1.80;;;11.00;97.30;;;;;;5012263;28;20192;-83
2022/10/19 08:44:46;;;;;;;1.53;1.43;;;11.00;97.30;;;;;;5008581;28;20705;-84
2022/10/19 08:47:42;;;;;;;1.53;1.43;;;11.10;97.30;;;;;;4973653;28;20394;-83
2022/10/19 08:50:24;;;;;;;2.00;1.90;;;11.10;97.30;;;;;;4996346;28;20979;-84
2022/10/19 08:53:10;;;;;;;3.70;1.83;;;11.10;97.30;;;;;;4992707;28;20402;-84
2022/10/19 08:55:49;;;;;;;1.63;1.53;;;11.10;97.30;;;;;;4991625;28;20488;-80
2022/10/19 08:58:20;;;;;;;3.00;1.67;;;11.20;97.30;;;;;;4992726;28;20389;-81
2022/10/19 09:00:59;;;;;;;1.40;1.30;;;11.20;97.30;;;;;;4992169;28;20456;-84
2022/10/19 09:03:39;;;;;;;2.10;1.53;;;11.30;97.30;;;;;;4991323;28;20452;-83
2022/10/19 09:06:19;;;;;;;2.77;2.20;;;11.30;97.30;;;;;;4991544;28;20893;-84
2022/10/19 09:08:45;;;;;;;4.27;3.27;;;11.40;97.30;;;;;;4991519;28;20413;-84
2022/10/19 09:11:11;;;;;;;1.20;1.10;;;11.40;97.30;;;;;;4991506;28;20440;-83
2022/10/19 09:13:44;;;;;;;4.90;2.87;;;11.50;97.30;;;;;;4992635;28;20448;-83
2022/10/19 09:16:13;;;;;;;3.47;2.17;;;11.50;97.30;;;;;;4992748;28;20818;-84
2022/10/19 09:18:40;;;;;;;4.30;2.63;;;11.60;97.30;;;;;;4991463;28;20460;-84
2022/10/19 09:21:12;;;;;;;9.50;2.27;;;11.70;97.30;;;;;;4990976;28;20990;-84
2022/10/19 09:23:51;;;;;;;2.13;1.17;;;11.80;97.30;;;;;;4991087;28;20453;-84
2022/10/19 09:26:19;;;;;;;2.27;1.70;;;11.90;97.30;;;;;;4991246;28;20409;-84
2022/10/19 09:28:58;;;;;;;2.40;1.70;;;12.00;97.30;;;;;;4992514;28;20404;-83
2022/10/19 09:31:31;;;;;;;1.73;1.63;;;12.10;97.30;;;;;;4992706;28;20519;-83
2022/10/19 09:34:05;;;;;;;4.83;1.57;;;12.10;97.30;;;;;;4991045;28;21102;-83
2022/10/19 09:36:39;;;;;;;1.67;1.57;;;12.10;97.30;;;;;;4991347;28;20475;-83
2022/10/19 09:39:05;;;;;;;1.30;1.30;;;12.10;97.30;;;;;;4992577;28;20416;-83
2022/10/19 09:41:31;;;;;;;1.40;1.30;;;12.00;97.30;;;;;;4992351;28;20440;-83
2022/10/19 09:43:58;;;;;;;1.57;1.50;;;12.00;97.30;;;;;;4992251;28;20496;-83
2022/10/19 09:46:26;;;;;;;1.60;1.50;;;12.00;97.30;;;;;;4994122;28;20452;-83
2022/10/19 09:48:52;;;;;;;1.70;1.67;;;12.00;97.30;;;;;;5010508;28;20588;-83
2022/10/19 09:51:19;;;;;;;3.43;2.30;;;12.00;97.30;;;;;;5010608;28;20472;-83
2022/10/19 09:53:51;;;;;;;2.03;1.67;;;12.00;97.30;;;;;;5010524;28;20177;-83
2022/10/19 09:56:25;;;;;;;3.90;2.33;;;12.00;97.30;;;;;;5010907;28;20423;-83
2022/10/19 09:58:56;;;;;;;1.53;1.43;;;12.10;97.30;;;;;;5014177;28;20447;-83
2022/10/19 10:01:38;;;;;;;1.57;1.40;;;12.10;97.30;;;;;;5013870;28;20479;-82
2022/10/19 10:04:15;;;;;;;10.83;2.23;;;12.30;97.30;;;;;;5015093;28;21019;-83
2022/10/19 10:06:43;;;;;;;10.43;2.40;;;12.40;97.30;;;;;;5014004;28;20436;-83
2022/10/19 10:09:17;;;;;;;5.83;2.23;;;12.40;97.30;;;;;;5013026;28;20456;-84
2022/10/19 10:11:46;;;;;;;2.40;2.23;;;12.50;97.30;;;;;;5014822;28;20474;-83
2022/10/19 10:14:17;;;;;;;1.73;1.63;;;12.40;97.30;;;;;;5014047;28;20468;-83
2022/10/19 10:16:44;;;;;;;2.40;1.90;;;12.40;97.30;;;;;;5014662;28;20424;-83
2022/10/19 10:19:15;;;;;;;1.13;1.03;;;12.30;97.30;;;;;;5013861;28;20412;-83
2022/10/19 10:21:51;;;;;;;1.33;1.00;;;12.30;97.30;;;;;;5013559;28;20436;-83
2022/10/19 10:24:19;;;;;;;5.77;2.40;;;12.20;97.30;;;;;;5013631;28;20463;-83
2022/10/19 10:26:47;;;;;;;1.00;0.90;;;12.20;97.30;;;;;;5014013;28;20416;-82
2022/10/19 10:29:28;;;;;;;6.23;1.73;;;12.20;97.30;;;;;;5013606;28;20420;-83
2022/10/19 10:32:12;;;;;;;1.60;1.50;;;12.20;97.30;;;;;;5013782;28;20846;-84
2022/10/19 10:34:42;;;;;;;1.10;1.00;;;12.10;97.30;;;;;;5013468;28;20420;-83
2022/10/19 10:37:24;;;;;;;1.03;0.93;;;12.00;97.30;;;;;;5012873;28;20421;-83
2022/10/19 10:39:52;;;;;;;1.80;1.53;;;12.10;97.30;;;;;;5011511;28;20518;-83
2022/10/19 10:42:27;;;;;;;0.90;0.80;;;12.10;97.30;;;;;;5013078;28;20587;-84
2022/10/19 10:44:55;;;;;;;1.00;0.90;;;12.20;97.30;;;;;;5011576;28;20455;-84
2022/10/19 10:47:21;;;;;;;5.60;1.00;;;12.20;97.30;;;;;;5011608;28;20927;-84
2022/10/19 10:50:05;;;;;;;1.03;0.93;;;12.30;97.30;;;;;;5013346;28;20416;-83
2022/10/19 10:52:31;;;;;;;1.37;1.30;;;12.20;97.30;;;;;;5013903;28;20416;-83
2022/10/19 10:54:57;;;;;;;0.70;0.70;;;12.30;97.30;;;;;;5010998;28;20526;-83
2022/10/19 10:57:27;;;;;;;1.03;0.93;;;12.30;97.30;;;;;;5011145;28;20503;-84
2022/10/19 11:00:11;;;;;;;1.50;1.40;;;12.40;97.30;;;;;;5010269;28;20568;-82
2022/10/19 11:03:04;;;;;;;1.10;1.00;;;12.50;97.30;;;;;;5013460;28;21020;-83
2022/10/19 11:05:46;;;;;;;31.80;3.23;;;12.50;97.30;;;;;;5012170;28;20963;-83
2022/10/19 11:08:21;;;;;;;1.50;1.40;;;12.60;97.30;;;;;;5013222;28;20902;-83
2022/10/19 11:10:54;;;;;;;1.07;1.00;;;12.60;97.30;;;;;;5013023;28;20450;-83
2022/10/19 11:13:41;;;;;;;0.93;0.83;;;12.70;97.30;;;;;;5013073;28;20479;-83
2022/10/19 11:16:20;;;;;;;6.00;1.60;;;12.70;97.30;;;;;;5013143;28;20410;-83
2022/10/19 11:19:14;;;;;;;1.00;0.90;;;12.80;97.30;;;;;;5012876;28;20782;-82
2022/10/19 11:21:47;;;;;;;3.67;1.30;;;12.80;97.30;;;;;;5013249;28;20981;-84
2022/10/19 11:24:46;;;;;;;1.80;1.33;;;12.90;97.30;;;;;;5013948;28;20994;-84
2022/10/19 11:27:27;;;;;;;3.60;1.90;;;12.90;97.30;;;;;;5014033;28;20424;-83
2022/10/19 11:30:11;;;;;;;1.00;0.90;;;12.90;97.30;;;;;;5012351;28;20730;-84
2022/10/19 11:33:06;;;;;;;1.20;1.10;;;13.00;97.30;;;;;;5012036;28;20419;-84
2022/10/19 11:35:32;;;;;;;0.90;0.80;;;13.00;97.30;;;;;;5012627;28;20430;-83
2022/10/19 11:38:32;;;;;;;5.90;1.27;;;13.00;97.30;;;;;;4992576;28;20413;-83
2022/10/19 11:41:13;;;;;;;1.90;1.70;;;13.00;97.30;;;;;;4992934;28;20197;-83
2022/10/19 11:43:48;;;;;;;1.10;1.00;;;13.10;97.30;;;;;;4992931;28;20457;-84
2022/10/19 11:46:31;;;;;;;5.60;1.53;;;13.10;97.20;;;;;;4993793;28;20513;-84
2022/10/19 11:49:26;;;;;;;1.00;1.00;;;13.10;97.30;;;;;;4992678;28;20545;-84
2022/10/19 11:52:11;;;;;;;1.53;1.43;;;13.10;97.00;;;;;;4992651;28;20968;-83
2022/10/19 11:55:21;;;;;;;0.90;0.80;;;13.20;97.30;;;;;;4992667;28;20416;-84
2022/10/19 11:58:17;;;;;;;1.00;0.90;;;13.20;97.30;;;;;;4983659;28;20511;-83
2022/10/19 12:01:16;;;;;;;1.10;1.00;;;13.20;97.30;;;;;;4991546;28;20486;-83
2022/10/19 12:04:15;;;;;;;2.70;2.50;;;13.30;97.30;;;;;;5064000;22;20493;-85
2022/10/19 12:07:19;;;;;;;2.23;1.10;;;13.40;97.30;;;;;;5055025;28;20542;-84
2022/10/19 12:10:07;;;;;;;1.03;1.00;;;13.40;97.30;;;;;;5036957;28;20479;-85
2022/10/19 12:12:37;;;;;;;1.10;1.00;;;13.30;97.30;;;;;;5071711;28;20436;-85
2022/10/19 12:15:27;;;;;;;1.20;1.10;;;13.10;97.30;;;;;;5089835;28;20883;-84
2022/10/19 12:17:56;;;;;;;1.03;0.93;;;13.10;97.30;;;;;;5071855;28;20425;-87
2022/10/19 12:20:43;;;;;;;1.00;0.90;;;13.00;97.30;;;;;;5071398;28;20430;-87
2022/10/19 12:23:22;;;;;;;1.53;1.43;;;13.00;97.30;;;;;;5072111;28;20476;-88
2022/10/19 12:25:49;;;;;;;1.10;1.00;;;12.90;97.30;;;;;;5072486;28;20791;-88
2022/10/19 12:28:22;;;;;;;1.33;1.23;;;12.90;97.30;;;;;;5070117;28;20420;-87
2022/10/19 12:30:48;;;;;;;1.20;1.10;;;12.80;97.30;;;;;;5053047;28;20423;-88
2022/10/19 12:33:27;;;;;;;3.53;1.20;;;12.80;97.30;;;;;;5070720;28;20439;-87
2022/10/19 12:36:21;;;;;;;17.13;1.43;;;12.80;97.30;;;;;;5046306;28;20418;-87
2022/10/19 12:39:10;;;;;;;2.30;2.10;;;12.80;97.30;;;;;;5033287;28;20874;-87
2022/10/19 12:41:54;;;;;;;1.80;1.27;;;12.80;97.30;;;;;;5039017;28;20433;-87
2022/10/19 12:44:38;;;;;;;1.07;0.97;;;12.70;97.30;;;;;;5039386;28;20714;-87
2022/10/19 12:47:23;;;;;;;2.50;1.27;;;12.70;97.30;;;;;;5090653;28;20718;-87
2022/10/19 12:49:57;;;;;;;0.90;0.80;;;12.80;97.30;;;;;;5070500;28;20445;-87
2022/10/19 12:52:34;;;;;;;0.90;0.80;;;12.70;97.30;;;;;;5060822;28;20424;-87
2022/10/19 12:55:26;;;;;;;10.67;2.03;;;12.80;97.30;;;;;;5049341;28;20429;-86
2022/10/19 12:58:01;;;;;;;1.00;0.90;;;12.80;97.30;;;;;;5044253;28;20813;-88
2022/10/19 13:00:31;;;;;;;1.60;1.23;;;12.80;97.30;;;;;;5052871;28;20795;-90
2022/10/19 13:03:05;;;;;;;1.10;1.00;;;12.80;97.30;;;;;;5052344;28;20445;-87
2022/10/19 13:05:32;;;;;;;1.10;1.10;;;12.90;97.30;;;;;;5052367;28;20425;-87
2022/10/19 13:08:01;;;;;;;0.93;0.83;;;12.90;97.30;;;;;;5053088;28;20685;-87
2022/10/19 13:10:28;;;;;;;1.20;1.10;;;12.90;97.30;;;;;;5047175;28;20433;-87
2022/10/19 13:12:54;;;;;;;0.90;0.80;;;12.80;97.30;;;;;;5049077;28;20430;-89
2022/10/19 13:15:35;;;;;;;1.00;0.90;;;12.80;97.30;;;;;;5048719;28;21022;-87
2022/10/19 13:18:12;;;;;;;1.00;0.90;;;12.80;97.30;;;;;;5032238;28;20182;-87